createdAt,value
2022-10-23T00:01:44.077Z,101179.91
2022-10-23T00:04:30.737Z,101184.31
2022-10-23T00:07:17.462Z,101189.63
2022-10-23T00:10:06.087Z,101194.00
2022-10-23T00:12:53.745Z,101196.25
2022-10-23T00:15:40.335Z,101196.66
2022-10-23T00:18:28.748Z,101203.78
2022-10-23T00:21:17.648Z,101200.28
2022-10-23T00:24:04.582Z,101199.59
2022-10-23T00:26:51.653Z,101183.00
2022-10-23T00:29:38.189Z,101195.97
2022-10-23T00:32:26.463Z,101197.63
2022-10-23T00:35:15.723Z,101194.06
2022-10-23T00:38:02.520Z,101195.88
2022-10-23T00:43:58.567Z,101195.25
2022-10-23T00:46:46.331Z,101195.53
2022-10-23T00:49:34.601Z,101189.53
2022-10-23T00:52:22.804Z,101201.94
2022-10-23T00:55:10.098Z,101201.97
2022-10-23T00:57:57.296Z,101198.34
2022-10-23T01:00:47.775Z,101189.47
2022-10-23T01:03:34.472Z,101204.16
2022-10-23T01:06:31.760Z,101207.41
2022-10-23T01:09:26.139Z,101216.84
2022-10-23T01:12:22.463Z,101208.59
2022-10-23T01:15:17.724Z,101214.81
2022-10-23T01:18:08.805Z,101219.94
2022-10-23T01:21:01.453Z,101196.38
2022-10-23T01:24:11.133Z,101210.41
2022-10-23T01:27:14.855Z,101211.91
2022-10-23T01:30:07.079Z,101218.84
2022-10-23T01:33:01.744Z,101215.72
2022-10-23T01:35:53.654Z,101213.31
2022-10-23T01:38:45.404Z,101194.19
2022-10-23T01:41:43.419Z,101219.72
2022-10-23T01:44:37.737Z,101214.47
2022-10-23T01:47:31.285Z,101214.38
2022-10-23T01:50:25.788Z,101209.97
2022-10-23T01:53:20.907Z,101217.13
2022-10-23T01:56:11.790Z,101212.91
2022-10-23T01:59:02.784Z,101218.25
2022-10-23T02:01:59.430Z,101213.50
2022-10-23T02:04:57.010Z,101220.81
2022-10-23T02:07:44.097Z,101224.44
2022-10-23T02:10:41.488Z,101215.22
2022-10-23T02:13:34.396Z,101212.78
2022-10-23T02:16:30.256Z,101219.63
2022-10-23T02:19:26.740Z,101214.41
2022-10-23T02:22:28.388Z,101209.59
2022-10-23T02:25:18.840Z,101201.28
2022-10-23T02:28:13.555Z,101205.34
2022-10-23T02:31:08.433Z,101209.41
2022-10-23T02:33:55.508Z,101210.25
2022-10-23T02:36:44.290Z,101209.69
2022-10-23T02:39:31.312Z,101208.81
2022-10-23T02:42:24.011Z,101210.63
2022-10-23T02:45:15.985Z,101217.13
2022-10-23T02:48:12.799Z,101218.16
2022-10-23T02:51:07.408Z,101209.47
2022-10-23T02:54:04.316Z,101209.44
2022-10-23T02:57:01.201Z,101209.63
2022-10-23T02:59:56.294Z,101204.53
2022-10-23T03:02:47.726Z,101214.41
2022-10-23T03:05:39.610Z,101219.06
2022-10-23T03:08:26.990Z,101215.44
2022-10-23T03:11:15.092Z,101217.63
2022-10-23T03:14:01.854Z,101220.47
2022-10-23T03:16:49.272Z,101218.81
2022-10-23T03:19:36.003Z,101209.03
2022-10-23T03:22:24.599Z,101215.88
2022-10-23T03:25:11.449Z,101213.53
2022-10-23T03:28:00.377Z,101213.81
2022-10-23T03:30:46.918Z,101209.31
2022-10-23T03:33:33.990Z,101220.97
2022-10-23T03:36:29.034Z,101219.44
2022-10-23T03:39:16.346Z,101218.75
2022-10-23T03:42:04.541Z,101226.78
2022-10-23T03:44:52.507Z,101228.59
2022-10-23T03:47:41.504Z,101226.56
2022-10-23T03:50:28.688Z,101230.97
2022-10-23T03:53:15.653Z,101238.25
2022-10-23T03:56:02.501Z,101237.16
2022-10-23T03:58:49.658Z,101234.66
2022-10-23T04:01:37.592Z,101235.56
2022-10-23T04:04:24.311Z,101233.84
2022-10-23T04:07:11.091Z,101239.16
2022-10-23T04:09:58.131Z,101235.81
2022-10-23T04:12:45.347Z,101237.78
2022-10-23T04:15:32.024Z,101236.16
2022-10-23T04:18:20.822Z,101236.34
2022-10-23T04:21:07.452Z,101228.50
2022-10-23T04:23:54.163Z,101238.44
2022-10-23T04:26:42.263Z,101230.56
2022-10-23T04:29:32.545Z,101233.44
2022-10-23T04:32:19.029Z,101239.69
2022-10-23T04:35:09.164Z,101237.25
2022-10-23T04:37:55.752Z,101232.97
2022-10-23T04:40:43.578Z,101238.34
2022-10-23T04:43:30.339Z,101233.16
2022-10-23T04:46:17.580Z,101230.78
2022-10-23T04:49:07.517Z,101230.84
2022-10-23T04:52:14.706Z,101235.41
2022-10-23T04:55:20.987Z,101239.84
2022-10-23T04:58:31.125Z,101239.97
2022-10-23T05:01:17.786Z,101243.56
2022-10-23T05:04:04.612Z,101246.28
2022-10-23T05:06:55.515Z,101245.50
2022-10-23T05:09:57.220Z,101241.16
2022-10-23T05:12:56.221Z,101236.84
2022-10-23T05:18:34.146Z,101224.75
2022-10-23T05:21:26.528Z,101225.53
2022-10-23T05:24:13.359Z,101227.66
2022-10-23T05:27:08.945Z,101227.78
2022-10-23T05:29:58.354Z,101231.41
2022-10-23T05:32:47.986Z,101228.78
2022-10-23T05:35:34.770Z,101227.78
2022-10-23T05:38:21.392Z,101238.47
2022-10-23T05:41:08.834Z,101237.72
2022-10-23T05:43:57.081Z,101244.81
2022-10-23T05:47:02.785Z,101240.53
2022-10-23T05:50:21.841Z,101239.59
2022-10-23T05:53:19.041Z,101247.59
2022-10-23T05:56:25.263Z,101241.44
2022-10-23T05:59:23.431Z,101247.72
2022-10-23T06:02:29.282Z,101252.25
2022-10-23T06:05:23.462Z,101249.63
2022-10-23T06:08:29.118Z,101250.56
2022-10-23T06:11:16.880Z,101238.28
2022-10-23T06:14:11.757Z,101247.00
2022-10-23T06:17:00.924Z,101240.03
2022-10-23T06:19:47.625Z,101241.91
2022-10-23T06:22:37.966Z,101192.13
2022-10-23T06:25:39.753Z,101220.09
2022-10-23T06:28:26.754Z,101222.91
2022-10-23T06:31:16.345Z,101186.03
2022-10-23T06:34:06.137Z,101231.38
2022-10-23T06:36:53.135Z,101243.63
2022-10-23T06:39:49.973Z,101244.19
2022-10-23T06:42:39.666Z,101250.06
2022-10-23T06:45:48.017Z,101260.59
2022-10-23T06:48:34.787Z,101255.97
2022-10-23T06:51:29.719Z,101248.84
2022-10-23T06:54:17.043Z,101253.13
2022-10-23T06:57:29.588Z,101249.38
2022-10-23T07:00:16.546Z,101248.06
2022-10-23T07:03:09.742Z,101245.16
2022-10-23T07:05:56.381Z,101249.47
2022-10-23T07:08:44.415Z,101256.09
2022-10-23T07:11:54.443Z,101256.59
2022-10-23T07:14:53.778Z,101260.94
2022-10-23T07:17:41.506Z,101267.88
2022-10-23T07:20:28.693Z,101272.25
2022-10-23T07:23:16.401Z,101274.28
2022-10-23T07:26:08.327Z,101270.78
2022-10-23T07:28:56.117Z,101272.28
2022-10-23T07:31:43.948Z,101260.63
2022-10-23T07:34:57.091Z,101252.38
2022-10-23T07:37:50.121Z,101249.53
2022-10-23T07:40:37.775Z,101251.13
2022-10-23T07:43:28.466Z,101249.13
2022-10-23T07:46:15.233Z,101252.50
2022-10-23T07:49:02.536Z,101245.00
2022-10-23T07:51:51.417Z,101253.63
2022-10-23T07:54:39.309Z,101252.38
2022-10-23T07:57:41.725Z,101245.31
2022-10-23T08:00:45.110Z,101246.94
2022-10-23T08:03:42.641Z,101241.53
2022-10-23T08:06:29.745Z,101249.28
2022-10-23T08:09:18.037Z,101246.56
2022-10-23T08:12:05.670Z,101243.56
2022-10-23T08:14:52.117Z,101239.09
2022-10-23T08:17:40.614Z,101229.97
2022-10-23T08:20:39.804Z,101236.78
2022-10-23T08:23:27.885Z,101230.28
2022-10-23T08:26:14.569Z,101237.22
2022-10-23T08:29:01.735Z,101245.25
2022-10-23T08:31:49.505Z,101243.34
2022-10-23T08:34:46.297Z,101244.06
2022-10-23T08:37:33.142Z,101249.00
2022-10-23T08:40:23.833Z,101254.25
2022-10-23T08:43:35.594Z,101251.38
2022-10-23T08:46:41.940Z,101250.25
2022-10-23T08:49:44.338Z,101247.50
2022-10-23T08:52:37.605Z,101252.75
2022-10-23T08:55:28.527Z,101249.81
2022-10-23T08:58:19.938Z,101246.03
2022-10-23T09:01:34.630Z,101239.63
2022-10-23T09:04:21.543Z,101236.63
2022-10-23T09:07:19.527Z,101229.41
2022-10-23T09:10:23.169Z,101226.25
2022-10-23T09:13:36.000Z,101221.16
2022-10-23T09:16:33.647Z,101236.59
2022-10-23T09:19:26.422Z,101232.63
2022-10-23T09:22:14.022Z,101224.16
2022-10-23T09:25:00.850Z,101221.03
2022-10-23T09:27:54.768Z,101224.25
2022-10-23T09:30:44.118Z,101232.44
2022-10-23T09:33:30.715Z,101234.22
2022-10-23T09:36:23.573Z,101233.34
2022-10-23T09:39:23.729Z,101237.25
2022-10-23T09:42:23.214Z,101235.03
2022-10-23T09:45:24.998Z,101234.38
2022-10-23T09:48:15.083Z,101241.88
2022-10-23T09:51:03.903Z,101246.81
2022-10-23T09:53:53.490Z,101240.69
2022-10-23T09:56:42.623Z,101243.75
2022-10-23T09:59:31.932Z,101242.16
2022-10-23T10:02:28.291Z,101240.00
2022-10-23T10:05:37.232Z,101248.28
2022-10-23T10:08:40.508Z,101240.06
2022-10-23T10:11:38.543Z,101219.88
2022-10-23T10:14:48.147Z,101225.69
2022-10-23T10:17:44.487Z,101220.22
2022-10-23T10:20:45.480Z,101218.06
2022-10-23T10:23:41.033Z,101221.41
2022-10-23T10:26:36.266Z,101210.84
2022-10-23T10:29:36.161Z,101217.94
2022-10-23T10:32:34.781Z,101212.44
2022-10-23T10:35:29.903Z,101204.47
2022-10-23T10:38:33.073Z,101203.59
2022-10-23T10:41:38.936Z,101195.59
2022-10-23T10:45:01.448Z,101189.28
2022-10-23T10:48:03.830Z,101180.25
2022-10-23T10:51:07.809Z,101177.53
2022-10-23T10:54:17.152Z,101172.03
2022-10-23T10:57:12.523Z,101168.50
2022-10-23T11:00:06.571Z,101167.09
2022-10-23T11:02:56.148Z,101155.59
2022-10-23T11:05:45.974Z,101160.16
2022-10-23T11:08:49.820Z,101167.16
2022-10-23T11:11:44.855Z,101155.13
2022-10-23T11:14:34.511Z,101152.66
2022-10-23T11:17:27.131Z,101151.19
2022-10-23T11:20:26.441Z,101148.81
2022-10-23T11:23:45.948Z,101145.00
2022-10-23T11:26:43.265Z,101141.22
2022-10-23T11:30:24.040Z,101138.09
2022-10-23T11:33:42.585Z,101125.50
2022-10-23T11:36:44.124Z,101125.59
2022-10-23T11:39:34.428Z,101122.13
2022-10-23T11:42:33.204Z,101116.38
2022-10-23T11:45:34.621Z,101118.34
2022-10-23T11:48:25.039Z,101092.16
2022-10-23T11:51:33.331Z,101096.31
2022-10-23T11:54:27.302Z,101102.44
2022-10-23T11:57:17.357Z,101097.41
2022-10-23T12:00:04.841Z,101089.28
2022-10-23T12:03:01.679Z,101083.41
2022-10-23T12:05:48.419Z,101071.41
2022-10-23T12:08:39.449Z,101073.22
2022-10-23T12:11:42.457Z,101068.19
2022-10-23T12:14:34.288Z,101070.72
2022-10-23T12:17:31.620Z,101069.78
2022-10-23T12:20:28.258Z,101069.59
2022-10-23T12:23:47.325Z,101063.03
2022-10-23T12:26:51.525Z,101051.97
2022-10-23T12:29:53.808Z,101051.88
2022-10-23T12:32:57.284Z,101042.38
2022-10-23T12:36:08.062Z,101036.41
2022-10-23T12:38:58.570Z,101033.91
2022-10-23T12:41:45.056Z,101036.75
2022-10-23T12:44:31.832Z,101025.16
2022-10-23T12:47:20.154Z,101040.91
2022-10-23T12:50:18.893Z,101027.75
2022-10-23T12:53:08.316Z,101028.97
2022-10-23T12:58:50.163Z,101015.72
2022-10-23T13:01:39.362Z,101011.78
2022-10-23T13:04:32.441Z,101010.38
2022-10-23T13:07:20.994Z,101007.28
2022-10-23T13:10:12.710Z,101008.59
2022-10-23T13:13:07.967Z,101005.44
2022-10-23T13:15:54.550Z,101002.66
2022-10-23T13:18:42.379Z,100980.34
2022-10-23T13:21:32.590Z,100987.94
2022-10-23T13:24:22.634Z,100996.53
2022-10-23T13:27:26.835Z,100994.03
2022-10-23T13:30:29.492Z,100988.75
2022-10-23T13:33:23.578Z,100982.63
2022-10-23T13:36:24.108Z,100975.03
2022-10-23T13:39:16.546Z,100963.09
2022-10-23T13:42:13.557Z,100958.47
2022-10-23T13:45:00.163Z,100961.69
2022-10-23T13:47:47.076Z,100964.78
2022-10-23T13:50:33.441Z,100964.97
2022-10-23T13:53:20.277Z,100956.94
2022-10-23T13:56:11.128Z,100955.53
2022-10-23T13:58:57.711Z,100958.63
2022-10-23T14:01:46.109Z,100948.09
2022-10-23T14:04:37.946Z,100951.59
2022-10-23T14:07:26.028Z,100944.69
2022-10-23T14:10:12.818Z,100935.94
2022-10-23T14:13:00.860Z,100944.19
2022-10-23T14:15:54.467Z,100939.28
2022-10-23T14:18:41.622Z,100939.06
2022-10-23T14:21:28.725Z,100942.44
2022-10-23T14:24:15.416Z,100930.81
2022-10-23T14:27:02.346Z,100934.47
2022-10-23T14:29:50.432Z,100933.50
2022-10-23T14:32:37.261Z,100937.50
2022-10-23T14:35:25.674Z,100942.91
2022-10-23T14:38:12.409Z,100935.38
2022-10-23T14:40:59.190Z,100921.91
2022-10-23T14:43:46.243Z,100918.88
2022-10-23T14:46:35.561Z,100923.72
2022-10-23T14:49:22.366Z,100925.34
2022-10-23T14:52:09.155Z,100921.47
2022-10-23T14:54:56.274Z,100914.13
2022-10-23T14:57:42.955Z,100917.22
2022-10-23T15:00:31.153Z,100914.38
2022-10-23T15:03:21.570Z,100912.63
2022-10-23T15:06:09.062Z,100906.81
2022-10-23T15:08:55.955Z,100903.28
2022-10-23T15:11:42.580Z,100898.78
2022-10-23T15:14:29.556Z,100895.16
2022-10-23T15:17:17.241Z,100895.19
2022-10-23T15:20:06.454Z,100893.63
2022-10-23T15:22:53.183Z,100889.72
2022-10-23T15:25:42.160Z,100883.03
2022-10-23T15:28:29.546Z,100875.41
2022-10-23T15:31:47.669Z,100882.78
2022-10-23T15:34:34.766Z,100870.59
2022-10-23T15:37:22.646Z,100861.59
2022-10-23T15:40:10.378Z,100866.25
2022-10-23T15:42:57.183Z,100864.75
2022-10-23T15:45:44.131Z,100857.06
2022-10-23T15:48:30.840Z,100862.63
2022-10-23T15:51:24.477Z,100861.16
2022-10-23T15:54:19.324Z,100865.16
2022-10-23T15:57:06.561Z,100861.00
2022-10-23T15:59:53.785Z,100860.03
2022-10-23T16:02:41.389Z,100863.66
2022-10-23T16:05:28.279Z,100856.78
2022-10-23T16:08:15.940Z,100858.41
2022-10-23T16:11:04.653Z,100851.16
2022-10-23T16:13:52.741Z,100851.38
2022-10-23T16:16:40.351Z,100844.72
2022-10-23T16:19:28.195Z,100840.19
2022-10-23T16:22:16.423Z,100834.06
2022-10-23T16:25:03.851Z,100830.09
2022-10-23T16:27:51.789Z,100830.94
2022-10-23T16:30:42.142Z,100831.28
2022-10-23T16:33:28.928Z,100826.78
2022-10-23T16:36:15.697Z,100824.66
2022-10-23T16:39:21.889Z,100828.75
2022-10-23T16:42:27.785Z,100823.88
2022-10-23T16:45:27.896Z,100827.25
2022-10-23T16:48:14.962Z,100826.16
2022-10-23T16:51:01.826Z,100820.84
2022-10-23T16:53:49.015Z,100813.69
2022-10-23T16:56:35.556Z,100800.66
2022-10-23T16:59:22.262Z,100802.38
2022-10-23T17:02:12.308Z,100807.41
2022-10-23T17:04:59.257Z,100796.22
2022-10-23T17:07:46.366Z,100790.31
2022-10-23T17:10:33.414Z,100786.94
2022-10-23T17:13:20.206Z,100777.94
2022-10-23T17:16:09.817Z,100782.78
2022-10-23T17:18:58.486Z,100774.53
2022-10-23T17:21:45.031Z,100775.72
2022-10-23T17:24:31.672Z,100773.50
2022-10-23T17:27:19.430Z,100766.91
2022-10-23T17:30:12.366Z,100757.94
2022-10-23T17:33:01.807Z,100761.94
2022-10-23T17:35:51.392Z,100762.22
2022-10-23T17:38:38.480Z,100754.72
2022-10-23T17:41:27.111Z,100757.25
2022-10-23T17:44:13.877Z,100748.78
2022-10-23T17:47:00.581Z,100749.44
2022-10-23T17:49:47.133Z,100735.59
2022-10-23T17:52:35.382Z,100736.78
2022-10-23T17:55:22.188Z,100733.78
2022-10-23T17:58:09.617Z,100732.84
2022-10-23T18:00:56.224Z,100737.41
2022-10-23T18:03:43.173Z,100732.31
2022-10-23T18:06:33.068Z,100730.88
2022-10-23T18:09:21.812Z,100734.97
2022-10-23T18:12:08.668Z,100731.63
2022-10-23T18:14:56.419Z,100730.47
2022-10-23T18:17:43.326Z,100728.19
2022-10-23T18:20:30.330Z,100726.22
2022-10-23T18:23:17.099Z,100726.66
2022-10-23T18:26:06.798Z,100711.06
2022-10-23T18:28:57.023Z,100718.22
2022-10-23T18:31:44.792Z,100698.34
2022-10-23T18:34:31.605Z,100700.47
2022-10-23T18:37:18.798Z,100699.13
2022-10-23T18:40:06.187Z,100692.63
2022-10-23T18:42:54.495Z,100678.19
2022-10-23T18:45:43.704Z,100684.03
2022-10-23T18:48:30.898Z,100681.56
2022-10-23T18:51:20.342Z,100689.97
2022-10-23T18:54:09.649Z,100687.53
2022-10-23T18:56:57.103Z,100691.31
2022-10-23T18:59:45.320Z,100698.50
2022-10-23T19:02:33.170Z,100700.31
2022-10-23T19:05:19.986Z,100697.66
2022-10-23T19:08:09.381Z,100687.06
2022-10-23T19:11:00.256Z,100678.66
2022-10-23T19:13:48.760Z,100681.72
2022-10-23T19:16:40.826Z,100685.97
2022-10-23T19:19:32.027Z,100678.19
2022-10-23T19:22:19.998Z,100679.53
2022-10-23T19:25:13.033Z,100682.59
2022-10-23T19:28:03.376Z,100662.69
2022-10-23T19:30:50.618Z,100668.09
2022-10-23T19:33:40.360Z,100672.94
2022-10-23T19:36:29.815Z,100669.47
2022-10-23T19:39:19.270Z,100667.69
2022-10-23T19:42:08.916Z,100662.75
2022-10-23T19:44:56.233Z,100664.72
2022-10-23T19:47:44.211Z,100656.31
2022-10-23T19:50:33.380Z,100654.72
2022-10-23T19:53:20.944Z,100656.78
2022-10-23T19:56:09.928Z,100662.84
2022-10-23T19:58:57.625Z,100657.97
2022-10-23T20:01:47.826Z,100654.16
2022-10-23T20:04:37.070Z,100638.63
2022-10-23T20:07:25.934Z,100634.09
2022-10-23T20:10:13.341Z,100638.75
2022-10-23T20:13:18.348Z,100637.81
2022-10-23T20:16:06.832Z,100638.69
2022-10-23T20:18:54.422Z,100657.91
2022-10-23T20:21:42.415Z,100660.78
2022-10-23T20:24:30.609Z,100661.25
2022-10-23T20:27:18.612Z,100667.47
2022-10-23T20:30:06.378Z,100663.44
2022-10-23T20:32:53.167Z,100661.06
2022-10-23T20:35:40.660Z,100658.09
2022-10-23T20:38:27.286Z,100653.44
2022-10-23T20:41:15.484Z,100644.25
2022-10-23T20:44:02.142Z,100649.94
2022-10-23T20:46:49.738Z,100643.34
2022-10-23T20:49:36.710Z,100646.78
2022-10-23T20:52:23.232Z,100654.78
2022-10-23T20:55:10.898Z,100641.31
2022-10-23T20:57:59.152Z,100633.59
2022-10-23T21:00:45.855Z,100631.22
2022-10-23T21:03:32.696Z,100632.78
2022-10-23T21:06:22.724Z,100618.72
2022-10-23T21:12:02.953Z,100626.31
2022-10-23T21:14:50.646Z,100631.69
2022-10-23T21:17:40.783Z,100623.16
2022-10-23T21:20:27.262Z,100621.66
2022-10-23T21:23:14.177Z,100613.88
2022-10-23T21:26:06.186Z,100616.34
2022-10-23T21:29:16.914Z,100610.06
2022-10-23T21:32:02.924Z,100610.94
2022-10-23T21:34:49.581Z,100603.59
2022-10-23T21:37:36.338Z,100609.19
2022-10-23T21:40:24.324Z,100604.38
2022-10-23T21:43:11.338Z,100608.81
2022-10-23T21:45:58.926Z,100597.25
2022-10-23T21:48:48.376Z,100590.81
2022-10-23T21:51:38.007Z,100593.88
2022-10-23T21:54:24.484Z,100592.88
2022-10-23T21:57:14.478Z,100613.72
2022-10-23T22:00:01.435Z,100619.38
2022-10-23T22:02:48.608Z,100614.81
2022-10-23T22:05:36.676Z,100610.16
2022-10-23T22:08:23.104Z,100617.31
2022-10-23T22:11:09.921Z,100629.97
2022-10-23T22:13:57.408Z,100633.41
2022-10-23T22:16:44.220Z,100639.88
2022-10-23T22:19:30.907Z,100632.97
2022-10-23T22:22:19.055Z,100630.91
2022-10-23T22:25:06.874Z,100621.66
2022-10-23T22:27:53.625Z,100626.03
2022-10-23T22:30:40.410Z,100613.34
2022-10-23T22:33:27.284Z,100616.00
2022-10-23T22:36:14.524Z,100605.13
2022-10-23T22:39:03.595Z,100607.50
2022-10-23T22:41:50.850Z,100618.31
2022-10-23T22:44:37.544Z,100628.16
2022-10-23T22:47:25.333Z,100632.47
2022-10-23T22:50:12.340Z,100623.56
2022-10-23T22:52:58.937Z,100634.78
2022-10-23T22:55:47.041Z,100628.81
2022-10-23T22:58:33.791Z,100625.34
2022-10-23T23:01:23.569Z,100625.69
2022-10-23T23:04:26.222Z,100628.94
2022-10-23T23:07:16.334Z,100619.47
2022-10-23T23:10:03.073Z,100619.63
2022-10-23T23:12:53.043Z,100624.81
2022-10-23T23:15:41.813Z,100619.31
2022-10-23T23:18:28.960Z,100624.34
2022-10-23T23:21:16.694Z,100625.38
2022-10-23T23:24:03.685Z,100619.97
2022-10-23T23:26:50.177Z,100616.13
2022-10-23T23:29:38.230Z,100614.00
2022-10-23T23:32:25.185Z,100608.97
2022-10-23T23:35:12.093Z,100602.44
2022-10-23T23:37:58.795Z,100604.38
2022-10-23T23:40:54.863Z,100598.78
2022-10-23T23:43:42.888Z,100613.78
2022-10-23T23:46:31.095Z,100610.50
2022-10-23T23:49:18.016Z,100599.72
2022-10-23T23:52:04.799Z,100605.16
2022-10-23T23:54:51.507Z,100595.97
2022-10-23T23:57:38.549Z,100604.34
